createdAt,value
2019-03-11T00:00:42.919Z,2.90
2019-03-11T00:03:12.214Z,3.10
2019-03-11T00:05:41.750Z,3.10
2019-03-11T00:08:11.132Z,2.97
2019-03-11T00:10:40.401Z,3.13
2019-03-11T00:13:09.710Z,3.10
2019-03-11T00:15:38.978Z,3.83
2019-03-11T00:18:08.271Z,2.90
2019-03-11T00:20:37.543Z,3.33
2019-03-11T00:23:06.828Z,3.17
2019-03-11T00:25:36.166Z,3.37
2019-03-11T00:28:05.452Z,3.17
2019-03-11T00:30:34.710Z,3.40
2019-03-11T00:33:04.010Z,2.87
2019-03-11T00:35:33.271Z,3.03
2019-03-11T00:38:02.516Z,3.67
2019-03-11T00:40:31.788Z,3.43
2019-03-11T00:43:01.052Z,3.20
2019-03-11T00:45:30.321Z,2.93
2019-03-11T00:48:02.253Z,2.97
2019-03-11T00:50:30.598Z,3.10
2019-03-11T00:52:59.864Z,3.30
2019-03-11T00:55:29.382Z,2.60
2019-03-11T00:57:58.614Z,2.83
2019-03-11T01:00:30.505Z,2.57
2019-03-11T01:02:59.838Z,2.13
2019-03-11T01:05:29.240Z,1.90
2019-03-11T01:07:58.475Z,1.90
2019-03-11T01:10:27.702Z,1.60
2019-03-11T01:12:56.951Z,1.57
2019-03-11T01:15:26.202Z,1.73
2019-03-11T01:17:55.451Z,1.83
2019-03-11T01:20:24.731Z,1.70
2019-03-11T01:22:54.010Z,1.90
2019-03-11T01:25:23.238Z,1.87
2019-03-11T01:27:52.527Z,1.92
2019-03-11T01:30:21.766Z,1.70
2019-03-11T01:32:51.047Z,2.23
2019-03-11T01:35:20.690Z,1.80
2019-03-11T01:37:49.900Z,1.50
2019-03-11T01:40:19.159Z,1.90
2019-03-11T01:42:47.931Z,2.10
2019-03-11T01:45:16.678Z,2.10
2019-03-11T01:47:45.371Z,2.10
2019-03-11T01:50:14.088Z,2.10
2019-03-11T01:52:42.790Z,2.20
2019-03-11T01:55:11.472Z,2.20
2019-03-11T01:57:40.187Z,2.40
2019-03-11T02:00:09.970Z,2.20
2019-03-11T02:02:38.678Z,1.83
2019-03-11T02:05:07.449Z,1.73
2019-03-11T02:07:36.155Z,1.60
2019-03-11T02:10:05.506Z,1.67
2019-03-11T02:12:53.283Z,1.50
2019-03-11T02:15:21.969Z,1.67
2019-03-11T02:17:50.690Z,1.47
2019-03-11T02:20:19.400Z,1.63
2019-03-11T02:22:48.103Z,1.40
2019-03-11T02:25:16.822Z,1.70
2019-03-11T02:27:45.508Z,1.40
2019-03-11T02:30:14.238Z,1.50
2019-03-11T02:32:42.985Z,1.50
2019-03-11T02:35:11.699Z,1.70
2019-03-11T02:37:40.456Z,1.23
2019-03-11T02:40:09.703Z,1.43
2019-03-11T02:42:38.438Z,1.60
2019-03-11T02:45:07.390Z,1.70
2019-03-11T02:47:36.066Z,1.97
2019-03-11T02:50:04.849Z,1.80
2019-03-11T02:52:33.561Z,1.77
2019-03-11T02:55:02.263Z,1.70
2019-03-11T02:57:30.955Z,1.50
2019-03-11T02:59:59.679Z,2.00
2019-03-11T03:02:47.590Z,2.10
2019-03-11T03:05:32.259Z,2.00
2019-03-11T03:08:00.982Z,2.17
2019-03-11T03:10:29.772Z,2.30
2019-03-11T03:12:58.470Z,2.20
2019-03-11T03:15:27.268Z,2.07
2019-03-11T03:17:55.957Z,2.40
2019-03-11T03:20:24.662Z,2.40
2019-03-11T03:22:53.439Z,2.87
2019-03-11T03:25:33.006Z,2.33
2019-03-11T03:27:52.647Z,2.63
2019-03-11T03:30:21.527Z,2.17
2019-03-11T03:32:50.250Z,2.07
2019-03-11T03:35:18.956Z,2.00
2019-03-11T03:37:47.719Z,1.93
2019-03-11T03:40:16.471Z,1.80
2019-03-11T03:42:45.255Z,1.60
2019-03-11T03:45:33.250Z,1.70
2019-03-11T03:48:02.002Z,1.40
2019-03-11T03:50:31.464Z,1.50
2019-03-11T03:53:00.178Z,1.33
2019-03-11T03:55:28.896Z,1.70
2019-03-11T03:57:57.600Z,1.40
2019-03-11T04:00:26.325Z,1.43
2019-03-11T04:02:55.002Z,1.60
2019-03-11T04:05:23.987Z,1.53
2019-03-11T04:07:52.675Z,1.40
2019-03-11T04:10:21.407Z,1.60
2019-03-11T04:12:50.196Z,1.60
2019-03-11T04:15:18.912Z,1.50
2019-03-11T04:17:47.612Z,1.70
2019-03-11T04:20:16.593Z,1.63
2019-03-11T04:22:45.317Z,1.40
2019-03-11T04:25:14.019Z,1.80
2019-03-11T04:27:42.694Z,1.60
2019-03-11T04:30:13.030Z,1.80
2019-03-11T04:32:41.709Z,1.73
2019-03-11T04:35:10.409Z,2.07
2019-03-11T04:37:39.130Z,1.70
2019-03-11T04:40:08.458Z,2.00
2019-03-11T04:42:37.185Z,1.60
2019-03-11T04:45:05.970Z,1.50
2019-03-11T04:47:34.690Z,1.83
2019-03-11T04:50:03.398Z,1.80
2019-03-11T04:52:32.096Z,1.70
2019-03-11T04:55:00.787Z,1.90
2019-03-11T04:57:31.180Z,1.90
2019-03-11T04:59:59.898Z,1.87
2019-03-11T05:02:28.580Z,1.90
2019-03-11T05:04:57.303Z,1.80
2019-03-11T05:07:26.013Z,2.30
2019-03-11T05:09:54.693Z,1.90
2019-03-11T05:12:23.406Z,1.80
2019-03-11T05:14:52.107Z,1.60
2019-03-11T05:17:20.804Z,1.30
2019-03-11T05:19:49.724Z,1.20
2019-03-11T05:22:18.413Z,1.40
2019-03-11T05:24:47.130Z,1.50
2019-03-11T05:27:15.901Z,1.73
2019-03-11T05:29:44.614Z,2.07
2019-03-11T05:32:13.325Z,1.90
2019-03-11T05:34:42.022Z,2.00
2019-03-11T05:37:10.723Z,2.30
2019-03-11T05:39:39.647Z,2.20
2019-03-11T05:42:08.324Z,2.57
2019-03-11T05:44:37.015Z,2.30
2019-03-11T05:47:05.718Z,2.80
2019-03-11T05:49:34.414Z,1.97
2019-03-11T05:52:03.130Z,1.90
2019-03-11T05:54:31.837Z,1.37
2019-03-11T05:57:00.536Z,1.10
2019-03-11T05:59:29.254Z,1.10
2019-03-11T06:01:57.941Z,1.10
2019-03-11T06:04:26.666Z,1.33
2019-03-11T06:06:55.342Z,1.70
2019-03-11T06:09:24.038Z,1.60
2019-03-11T06:11:52.771Z,1.50
2019-03-11T06:14:21.500Z,1.70
2019-03-11T06:16:50.257Z,1.73
2019-03-11T06:19:18.943Z,1.67
2019-03-11T06:22:04.882Z,1.57
2019-03-11T06:24:33.591Z,1.63
2019-03-11T06:27:02.300Z,1.70
2019-03-11T06:29:31.097Z,1.63
2019-03-11T06:31:59.895Z,1.70
2019-03-11T06:34:28.581Z,1.90
2019-03-11T06:36:57.323Z,1.73
2019-03-11T06:39:25.982Z,2.00
2019-03-11T06:41:54.676Z,2.07
2019-03-11T06:44:23.390Z,1.97
2019-03-11T06:46:52.159Z,2.03
2019-03-11T06:49:20.893Z,2.60
2019-03-11T06:51:49.593Z,2.10
2019-03-11T06:54:18.297Z,2.53
2019-03-11T06:56:47.019Z,2.73
2019-03-11T06:59:15.746Z,2.00
2019-03-11T07:01:44.476Z,2.53
2019-03-11T07:04:13.161Z,2.60
2019-03-11T07:06:41.879Z,2.70
2019-03-11T07:09:10.610Z,2.77
2019-03-11T07:11:39.706Z,2.20
2019-03-11T07:14:08.410Z,2.73
2019-03-11T07:16:37.108Z,2.80
2019-03-11T07:19:05.825Z,3.00
2019-03-11T07:21:34.773Z,2.60
2019-03-11T07:24:03.461Z,2.80
2019-03-11T07:26:32.159Z,3.00
2019-03-11T07:29:00.939Z,3.00
2019-03-11T07:31:29.706Z,3.30
2019-03-11T07:33:58.436Z,3.30
2019-03-11T07:36:27.143Z,3.10
2019-03-11T07:38:55.844Z,2.70
2019-03-11T07:41:24.546Z,2.70
2019-03-11T07:43:53.261Z,2.83
2019-03-11T07:46:21.994Z,2.97
2019-03-11T07:48:50.693Z,2.90
2019-03-11T07:51:19.420Z,3.60
2019-03-11T07:53:48.150Z,3.17
2019-03-11T07:56:16.845Z,3.10
2019-03-11T07:58:45.596Z,3.43
2019-03-11T08:01:14.303Z,2.80
2019-03-11T08:03:43.023Z,3.20
2019-03-11T08:06:18.683Z,2.77
2019-03-11T08:08:42.165Z,3.17
2019-03-11T08:11:11.465Z,2.67
2019-03-11T08:13:40.752Z,2.58
2019-03-11T08:16:10.031Z,2.70
2019-03-11T08:18:39.339Z,3.00
2019-03-11T08:21:08.593Z,2.60
2019-03-11T08:23:37.887Z,2.70
2019-03-11T08:26:07.135Z,2.90
2019-03-11T08:28:36.425Z,3.00
2019-03-11T08:31:05.758Z,2.83
2019-03-11T08:33:35.031Z,3.00
2019-03-11T08:36:04.340Z,2.90
2019-03-11T08:38:33.607Z,2.80
2019-03-11T08:41:02.890Z,2.50
2019-03-11T08:43:32.137Z,2.60
2019-03-11T08:46:01.371Z,2.63
2019-03-11T08:48:30.630Z,2.53
2019-03-11T08:50:59.899Z,2.67
2019-03-11T08:53:29.131Z,2.50
2019-03-11T08:55:58.446Z,2.37
2019-03-11T08:58:27.726Z,2.57
2019-03-11T09:00:56.984Z,2.30
2019-03-11T09:03:26.290Z,2.83
2019-03-11T09:05:55.550Z,2.50
2019-03-11T09:08:24.834Z,2.30
2019-03-11T09:10:54.129Z,2.63
2019-03-11T09:13:23.374Z,2.47
2019-03-11T09:15:53.008Z,2.90
2019-03-11T09:18:22.469Z,2.80
2019-03-11T09:20:51.801Z,2.73
2019-03-11T09:23:21.132Z,2.97
2019-03-11T09:25:50.378Z,2.93
2019-03-11T09:28:19.667Z,3.87
2019-03-11T09:30:49.022Z,2.67
2019-03-11T09:33:18.306Z,2.77
2019-03-11T09:35:47.620Z,2.77
2019-03-11T09:38:16.875Z,2.93
2019-03-11T09:40:46.136Z,3.37
2019-03-11T09:43:15.407Z,3.00
2019-03-11T09:45:44.682Z,2.87
2019-03-11T09:48:13.973Z,2.87
2019-03-11T09:50:43.200Z,2.60
2019-03-11T09:53:12.454Z,3.03
2019-03-11T09:55:41.746Z,2.50
2019-03-11T09:58:11.003Z,2.90
2019-03-11T10:00:40.275Z,2.47
2019-03-11T10:03:09.559Z,2.37
2019-03-11T10:05:38.858Z,2.40
2019-03-11T10:08:10.730Z,3.07
2019-03-11T10:10:39.144Z,3.13
2019-03-11T10:13:08.410Z,3.00
2019-03-11T10:15:37.659Z,3.30
2019-03-11T10:18:06.928Z,2.83
2019-03-11T10:20:36.237Z,2.83
2019-03-11T10:23:05.558Z,3.23
2019-03-11T10:25:34.788Z,3.07
2019-03-11T10:28:04.049Z,3.37
2019-03-11T10:30:33.301Z,2.57
2019-03-11T10:33:02.595Z,2.90
2019-03-11T10:35:32.920Z,2.73
2019-03-11T10:38:02.402Z,2.70
2019-03-11T10:40:31.687Z,2.73
2019-03-11T10:43:01.203Z,2.83
2019-03-11T10:45:32.196Z,2.57
2019-03-11T10:48:01.899Z,2.53
2019-03-11T10:50:31.154Z,2.57
2019-03-11T10:53:00.431Z,2.87
2019-03-11T10:55:29.723Z,2.40
2019-03-11T10:57:59.006Z,2.73
2019-03-11T11:00:28.599Z,2.57
2019-03-11T11:02:57.852Z,2.57
2019-03-11T11:05:27.151Z,2.70
2019-03-11T11:07:56.515Z,2.50
2019-03-11T11:10:25.908Z,2.60
2019-03-11T11:12:55.167Z,2.90
2019-03-11T11:15:24.560Z,2.80
2019-03-11T11:17:53.959Z,3.27
2019-03-11T11:20:23.881Z,2.70
2019-03-11T11:22:53.554Z,3.00
2019-03-11T11:25:23.283Z,2.70
2019-03-11T11:27:52.569Z,2.53
2019-03-11T11:30:22.655Z,2.80
2019-03-11T11:32:52.132Z,2.83
2019-03-11T11:35:21.599Z,3.12
2019-03-11T11:37:51.014Z,2.57
2019-03-11T11:40:22.064Z,2.70
2019-03-11T11:42:51.373Z,2.50
2019-03-11T11:45:21.116Z,2.13
2019-03-11T11:47:50.513Z,2.37
2019-03-11T11:50:20.551Z,2.60
2019-03-11T11:52:49.863Z,2.40
2019-03-11T11:55:19.458Z,2.27
2019-03-11T11:57:48.752Z,2.43
2019-03-11T12:00:21.099Z,2.73
2019-03-11T12:02:50.383Z,2.97
2019-03-11T12:05:19.676Z,2.80
2019-03-11T12:07:48.997Z,3.10
2019-03-11T12:10:18.875Z,2.63
2019-03-11T12:12:48.317Z,2.60
2019-03-11T12:15:17.718Z,3.10
2019-03-11T12:17:47.039Z,2.20
2019-03-11T12:20:18.692Z,2.70
2019-03-11T12:22:47.967Z,2.70
2019-03-11T12:25:17.531Z,2.10
2019-03-11T12:27:53.505Z,2.10
2019-03-11T12:30:19.999Z,2.17
2019-03-11T12:32:49.273Z,2.17
2019-03-11T12:35:18.866Z,2.00
2019-03-11T12:37:48.407Z,2.60
2019-03-11T12:40:17.789Z,2.33
2019-03-11T12:42:47.211Z,2.50
2019-03-11T12:45:16.571Z,3.07
2019-03-11T12:47:46.235Z,2.30
2019-03-11T12:50:16.870Z,2.60
2019-03-11T12:52:46.125Z,2.77
2019-03-11T12:55:15.574Z,2.40
2019-03-11T12:57:44.810Z,2.30
2019-03-11T13:00:16.249Z,2.90
2019-03-11T13:02:45.537Z,2.53
2019-03-11T13:05:15.410Z,2.43
2019-03-11T13:07:44.742Z,2.57
2019-03-11T13:10:16.211Z,2.63
2019-03-11T13:12:45.449Z,2.30
2019-03-11T13:15:15.122Z,2.73
2019-03-11T13:17:44.532Z,2.43
2019-03-11T13:20:19.881Z,2.57
2019-03-11T13:22:50.250Z,2.80
2019-03-11T13:25:19.552Z,2.47
2019-03-11T13:27:48.819Z,2.60
2019-03-11T13:30:18.580Z,2.87
2019-03-11T13:32:47.888Z,2.30
2019-03-11T13:35:17.161Z,2.30
2019-03-11T13:37:46.455Z,3.17
2019-03-11T13:40:16.086Z,2.37
2019-03-11T13:42:45.347Z,2.70
2019-03-11T13:45:15.633Z,2.37
2019-03-11T13:47:44.883Z,2.60
2019-03-11T13:50:14.604Z,2.40
2019-03-11T13:52:43.851Z,2.87
2019-03-11T13:55:14.227Z,2.40
2019-03-11T13:57:44.094Z,2.27
2019-03-11T14:00:13.553Z,2.20
2019-03-11T14:02:42.794Z,2.50
2019-03-11T14:05:12.112Z,2.23
2019-03-11T14:07:41.400Z,2.20
2019-03-11T14:10:10.698Z,2.07
2019-03-11T14:12:40.112Z,2.30
2019-03-11T14:15:09.834Z,2.30
2019-03-11T14:17:39.129Z,2.67
2019-03-11T14:20:09.532Z,2.60
2019-03-11T14:22:38.838Z,2.00
2019-03-11T14:25:08.556Z,2.67
2019-03-11T14:27:37.799Z,2.43
2019-03-11T14:30:08.183Z,2.33
2019-03-11T14:32:37.445Z,2.63
2019-03-11T14:35:07.627Z,2.37
2019-03-11T14:37:36.910Z,2.37
2019-03-11T14:40:06.813Z,2.20
2019-03-11T14:42:36.113Z,2.03
2019-03-11T14:45:08.445Z,1.83
2019-03-11T14:47:36.767Z,1.90
2019-03-11T14:50:06.509Z,2.00
2019-03-11T14:52:35.830Z,2.47
2019-03-11T14:55:05.454Z,2.40
2019-03-11T14:57:34.702Z,2.20
2019-03-11T15:00:04.435Z,2.20
2019-03-11T15:02:33.914Z,1.80
2019-03-11T15:05:03.243Z,2.17
2019-03-11T15:07:32.813Z,2.10
2019-03-11T15:10:02.123Z,2.10
2019-03-11T15:12:31.376Z,2.13
2019-03-11T15:15:00.662Z,2.43
2019-03-11T15:17:30.013Z,2.20
2019-03-11T15:19:59.269Z,2.20
2019-03-11T15:22:28.565Z,1.83
2019-03-11T15:24:57.829Z,2.10
2019-03-11T15:27:27.160Z,1.90
2019-03-11T15:29:56.490Z,1.87
2019-03-11T15:32:25.802Z,1.83
2019-03-11T15:34:55.103Z,1.93
2019-03-11T15:37:24.417Z,2.03
2019-03-11T15:39:53.829Z,2.20
2019-03-11T15:42:23.110Z,2.20
2019-03-11T15:44:52.950Z,1.93
2019-03-11T15:47:22.280Z,1.90
2019-03-11T15:49:51.510Z,2.40
2019-03-11T15:52:20.812Z,2.20
2019-03-11T15:54:50.073Z,1.93
2019-03-11T15:57:19.367Z,2.07
2019-03-11T15:59:48.671Z,1.90
2019-03-11T16:02:17.961Z,2.00
2019-03-11T16:04:47.284Z,2.40
2019-03-11T16:07:16.547Z,1.90
2019-03-11T16:09:45.781Z,2.07
2019-03-11T16:12:15.123Z,1.80
2019-03-11T16:14:49.373Z,2.00
2019-03-11T16:17:15.407Z,2.17
2019-03-11T16:19:44.742Z,2.30
2019-03-11T16:22:22.662Z,2.03
2019-03-11T16:24:45.063Z,1.80
2019-03-11T16:27:14.401Z,1.97
2019-03-11T16:29:43.691Z,1.93
2019-03-11T16:32:13.018Z,2.70
2019-03-11T16:34:42.328Z,2.27
2019-03-11T16:37:11.628Z,2.10
2019-03-11T16:39:40.967Z,2.33
2019-03-11T16:42:10.515Z,2.33
2019-03-11T16:44:39.803Z,1.97
2019-03-11T16:47:09.058Z,2.00
2019-03-11T16:49:38.863Z,2.27
2019-03-11T16:52:08.205Z,2.70
2019-03-11T16:54:37.569Z,3.77
2019-03-11T16:57:06.882Z,3.80
2019-03-11T16:59:36.166Z,2.43
2019-03-11T17:02:05.483Z,2.10
2019-03-11T17:04:34.867Z,2.10
2019-03-11T17:07:04.194Z,2.33
2019-03-11T17:09:33.541Z,2.50
2019-03-11T17:12:02.865Z,2.20
2019-03-11T17:14:32.135Z,2.10
2019-03-11T17:17:01.575Z,2.53
2019-03-11T17:19:30.870Z,2.10
2019-03-11T17:22:00.265Z,2.00
2019-03-11T17:24:29.591Z,2.17
2019-03-11T17:26:59.140Z,2.30
2019-03-11T17:29:28.436Z,2.23
2019-03-11T17:31:57.735Z,2.27
2019-03-11T17:34:27.011Z,3.30
2019-03-11T17:36:56.337Z,3.03
2019-03-11T17:39:25.665Z,2.43
2019-03-11T17:41:54.982Z,2.00
2019-03-11T17:44:24.583Z,2.23
2019-03-11T17:46:53.945Z,2.10
2019-03-11T17:49:23.283Z,2.33
2019-03-11T17:51:52.668Z,2.23
2019-03-11T17:54:22.717Z,2.63
2019-03-11T17:56:52.135Z,3.30
2019-03-11T17:59:21.493Z,2.50
2019-03-11T18:01:50.783Z,2.50
2019-03-11T18:04:20.164Z,2.40
2019-03-11T18:06:49.531Z,2.47
2019-03-11T18:09:18.827Z,2.67
2019-03-11T18:11:48.161Z,2.80
2019-03-11T18:14:17.439Z,2.80
2019-03-11T18:16:46.772Z,2.37
2019-03-11T18:19:16.090Z,2.63
2019-03-11T18:21:45.413Z,2.50
2019-03-11T18:24:14.726Z,2.30
2019-03-11T18:26:44.036Z,2.60
2019-03-11T18:29:13.434Z,2.73
2019-03-11T18:31:42.751Z,2.70
2019-03-11T18:34:12.114Z,2.57
2019-03-11T18:36:41.524Z,3.10
2019-03-11T18:39:10.986Z,2.90
2019-03-11T18:41:40.307Z,2.80
2019-03-11T18:44:09.649Z,2.60
2019-03-11T18:46:39.080Z,2.90
2019-03-11T18:49:08.488Z,3.00
2019-03-11T18:51:37.866Z,2.70
2019-03-11T18:54:07.253Z,2.93
2019-03-11T18:56:36.637Z,2.60
2019-03-11T18:59:06.083Z,2.50
2019-03-11T19:01:35.495Z,2.97
2019-03-11T19:04:04.930Z,2.77
2019-03-11T19:06:34.352Z,2.83
2019-03-11T19:09:04.295Z,3.20
2019-03-11T19:11:33.708Z,2.93
2019-03-11T19:14:03.127Z,3.20
2019-03-11T19:16:32.773Z,2.73
2019-03-11T19:19:02.171Z,3.27
2019-03-11T19:21:31.564Z,3.23
2019-03-11T19:24:00.932Z,3.57
2019-03-11T19:26:30.379Z,3.20
2019-03-11T19:28:59.742Z,2.83
2019-03-11T19:31:29.976Z,3.33
2019-03-11T19:33:59.533Z,3.10
2019-03-11T19:36:28.970Z,2.90
2019-03-11T19:38:58.275Z,3.10
2019-03-11T19:41:27.608Z,3.23
2019-03-11T19:43:56.890Z,3.50
2019-03-11T19:46:26.305Z,3.37
2019-03-11T19:48:56.657Z,2.83
2019-03-11T19:51:26.013Z,3.10
2019-03-11T19:53:55.325Z,2.97
2019-03-11T19:56:24.683Z,3.47
2019-03-11T19:58:54.025Z,2.80
2019-03-11T20:01:23.292Z,2.93
2019-03-11T20:03:52.651Z,3.03
2019-03-11T20:06:22.179Z,3.47
2019-03-11T20:08:51.528Z,3.40
2019-03-11T20:11:21.079Z,2.93
2019-03-11T20:13:50.472Z,3.70
2019-03-11T20:16:19.828Z,3.30
2019-03-11T20:18:49.224Z,3.40
2019-03-11T20:21:18.587Z,3.87
2019-03-11T20:23:47.910Z,3.05
2019-03-11T20:26:18.623Z,2.30
2019-03-11T20:28:48.328Z,2.93
2019-03-11T20:31:17.840Z,3.27
2019-03-11T20:33:47.512Z,2.73
2019-03-11T20:36:21.279Z,3.00
2019-03-11T20:38:47.990Z,3.10
2019-03-11T20:41:17.282Z,3.17
2019-03-11T20:43:46.654Z,3.43
2019-03-11T20:46:16.172Z,3.13
2019-03-11T20:48:45.570Z,3.30
2019-03-11T20:51:14.882Z,2.80
2019-03-11T20:53:44.333Z,3.10
2019-03-11T20:56:13.690Z,3.13
2019-03-11T20:58:42.996Z,2.80
2019-03-11T21:01:12.366Z,3.10
2019-03-11T21:03:41.844Z,3.43
2019-03-11T21:06:11.200Z,2.90
2019-03-11T21:08:40.562Z,3.27
2019-03-11T21:11:09.909Z,3.20
2019-03-11T21:13:39.220Z,3.20
2019-03-11T21:16:08.541Z,2.93
2019-03-11T21:18:37.953Z,2.87
2019-03-11T21:21:07.409Z,3.10
2019-03-11T21:23:36.750Z,2.93
2019-03-11T21:26:06.155Z,3.27
2019-03-11T21:28:35.648Z,2.90
2019-03-11T21:31:05.064Z,3.37
2019-03-11T21:33:34.413Z,2.90
2019-03-11T21:36:03.798Z,3.33
2019-03-11T21:38:33.225Z,3.55
2019-03-11T21:41:02.628Z,3.00
2019-03-11T21:43:32.100Z,3.00
2019-03-11T21:46:01.528Z,2.60
2019-03-11T21:48:30.910Z,2.90
2019-03-11T21:51:00.248Z,2.70
2019-03-11T21:53:29.621Z,3.63
2019-03-11T21:55:59.307Z,2.87
2019-03-11T21:58:29.422Z,3.10
2019-03-11T22:00:58.760Z,3.10
2019-03-11T22:03:28.144Z,2.80
2019-03-11T22:05:57.480Z,2.90
2019-03-11T22:08:26.763Z,3.07
2019-03-11T22:10:56.075Z,3.47
2019-03-11T22:13:25.368Z,4.13
2019-03-11T22:15:54.658Z,2.70
2019-03-11T22:18:23.943Z,2.83
2019-03-11T22:20:53.257Z,3.13
2019-03-11T22:23:22.590Z,3.63
2019-03-11T22:25:52.119Z,3.20
2019-03-11T22:28:21.929Z,4.60
2019-03-11T22:30:51.214Z,4.20
2019-03-11T22:33:20.572Z,3.70
2019-03-11T22:35:49.875Z,4.47
2019-03-11T22:38:19.211Z,3.70
2019-03-11T22:40:48.507Z,3.43
2019-03-11T22:43:17.837Z,4.10
2019-03-11T22:45:47.097Z,3.50
2019-03-11T22:48:16.336Z,4.00
2019-03-11T22:50:45.622Z,4.23
2019-03-11T22:53:14.911Z,3.40
2019-03-11T22:55:44.461Z,4.07
2019-03-11T22:58:13.698Z,3.30
2019-03-11T23:00:55.284Z,4.03
2019-03-11T23:03:25.401Z,3.10
2019-03-11T23:05:58.230Z,3.70
2019-03-11T23:08:25.913Z,3.83
2019-03-11T23:10:55.234Z,3.77
2019-03-11T23:13:24.496Z,3.60
2019-03-11T23:15:53.811Z,4.43
2019-03-11T23:18:23.124Z,3.40
2019-03-11T23:20:52.382Z,3.30
2019-03-11T23:23:21.628Z,3.03
2019-03-11T23:25:50.906Z,3.43
2019-03-11T23:28:20.168Z,3.97
2019-03-11T23:30:49.467Z,4.00
2019-03-11T23:33:18.693Z,3.83
2019-03-11T23:35:47.967Z,3.80
2019-03-11T23:38:17.228Z,3.60
2019-03-11T23:40:46.501Z,4.80
2019-03-11T23:43:15.903Z,4.43
2019-03-11T23:45:45.176Z,4.90
2019-03-11T23:48:14.434Z,5.07
2019-03-11T23:50:43.702Z,4.67
2019-03-11T23:53:12.952Z,3.87
2019-03-11T23:55:42.210Z,4.20
2019-03-11T23:58:11.454Z,4.73
